Time;durP1;ratioP1;P1;durP2;ratioP2;P2;SDS_P1;SDS_P2;PMS_P1;PMS_P2;Temp;Humidity;BMP_temperature;BMP_pressure;BME280_temperature;BME280_humidity;BME280_pressure;Samples;Min_cycle;Max_cycle;Signal;HPM_P1;HPM_P2
2021/07/16 00:01:25;;;;;;;5.53;5.07;;;;;;;18.53;96.50;96339.47;5014181;28;20572;-56
2021/07/16 00:03:50;;;;;;;5.43;5.03;;;;;;;18.53;96.22;96339.47;5013717;28;20459;-58
2021/07/16 00:06:16;;;;;;;6.80;5.17;;;;;;;18.56;96.32;96340.78;5013616;28;20180;-58
2021/07/16 00:08:41;;;;;;;5.00;4.63;;;;;;;18.58;96.15;96336.78;5008739;28;20758;-58
2021/07/16 00:11:07;;;;;;;5.40;4.90;;;;;;;18.52;95.88;96337.06;5005665;28;20181;-58
2021/07/16 00:13:32;;;;;;;6.23;5.70;;;;;;;18.46;96.39;96339.00;4994588;28;20533;-58
2021/07/16 00:15:58;;;;;;;5.20;4.80;;;;;;;18.37;96.61;96333.41;5002621;28;20674;-56
2021/07/16 00:18:23;;;;;;;6.10;5.57;;;;;;;18.41;96.19;96339.00;5005142;28;20252;-58
2021/07/16 00:20:49;;;;;;;5.20;4.70;;;;;;;18.50;95.90;96325.91;4994445;28;20192;-56
2021/07/16 00:23:14;;;;;;;4.77;4.47;;;;;;;18.40;95.85;96327.53;5006793;28;20197;-58
2021/07/16 00:25:41;;;;;;;5.33;4.83;;;;;;;18.32;96.02;96328.13;5013891;28;20224;-57
2021/07/16 00:28:09;;;;;;;5.13;4.73;;;;;;;18.38;95.66;96334.19;5006465;28;20446;-56
2021/07/16 00:30:35;;;;;;;4.77;4.37;;;;;;;18.41;95.41;96341.66;5002824;28;20189;-57
2021/07/16 00:33:02;;;;;;;4.43;4.03;;;;;;;18.40;94.82;96348.03;5004875;28;20424;-56
2021/07/16 00:35:28;;;;;;;3.37;3.17;;;;;;;18.36;95.03;96350.44;4999591;28;20531;-57
2021/07/16 00:37:54;;;;;;;4.53;4.00;;;;;;;18.17;94.98;96352.13;5004858;28;20419;-58
2021/07/16 00:40:19;;;;;;;4.20;3.90;;;;;;;18.09;95.34;96355.38;4995223;28;20459;-57
2021/07/16 00:42:45;;;;;;;4.40;4.00;;;;;;;18.17;95.30;96362.00;4998962;28;20531;-58
2021/07/16 00:45:13;;;;;;;4.20;3.90;;;;;;;18.19;94.80;96365.94;5013351;28;20319;-58
2021/07/16 00:47:40;;;;;;;4.17;3.87;;;;;;;18.22;94.94;96362.75;5005781;28;20189;-59
2021/07/16 00:50:09;;;;;;;4.30;4.00;;;;;;;18.22;94.95;96362.75;4994210;28;20438;-58
2021/07/16 00:52:36;;;;;;;4.10;3.80;;;;;;;18.19;94.49;96360.63;4993656;28;20433;-58
2021/07/16 00:55:03;;;;;;;7.13;3.70;;;;;;;18.20;94.19;96364.91;4999824;28;20844;-58
2021/07/16 00:57:28;;;;;;;3.90;3.60;;;;;;;18.19;94.24;96371.28;5013517;28;20454;-55
2021/07/16 00:59:54;;;;;;;4.20;3.90;;;;;;;18.13;94.48;96369.72;5013505;28;20412;-58
2021/07/16 01:02:20;;;;;;;4.20;3.90;;;;;;;18.10;94.08;96375.56;5013690;28;20615;-58
2021/07/16 01:04:45;;;;;;;4.77;4.40;;;;;;;18.15;94.13;96380.84;5004443;28;20220;-58
2021/07/16 01:07:11;;;;;;;4.90;4.50;;;;;;;18.14;93.99;96376.63;5004297;28;20428;-57
2021/07/16 01:09:36;;;;;;;6.00;4.40;;;;;;;18.09;94.06;96384.63;5002098;28;20671;-56
2021/07/16 01:12:02;;;;;;;5.13;4.73;;;;;;;17.88;94.92;96383.09;5001085;28;20188;-56
2021/07/16 01:14:28;;;;;;;4.13;3.83;;;;;;;17.56;95.93;96379.19;5007421;28;20197;-59
2021/07/16 01:16:54;;;;;;;4.77;4.40;;;;;;;17.16;99.05;96385.31;5010598;28;20940;-57
2021/07/16 01:19:34;;;;;;;5.03;4.63;;;;;;;17.20;99.36;96381.06;5002800;28;20550;-57
2021/07/16 01:22:02;;;;;;;5.47;5.07;;;;;;;17.26;99.21;96385.31;4997299;28;20181;-57
2021/07/16 01:24:28;;;;;;;5.63;5.23;;;;;;;17.38;98.76;96389.28;5003102;28;20977;-58
2021/07/16 01:26:53;;;;;;;4.83;4.50;;;;;;;17.51;98.55;96389.81;5004317;28;20431;-58
2021/07/16 01:29:19;;;;;;;4.67;4.33;;;;;;;17.59;98.27;96395.41;5005009;28;20479;-58
2021/07/16 01:31:45;;;;;;;5.10;4.70;;;;;;;17.46;97.77;96387.94;4997469;28;20181;-58
2021/07/16 01:34:11;;;;;;;5.33;4.93;;;;;;;17.41;97.99;96380.78;5015027;28;20816;-58
2021/07/16 01:36:37;;;;;;;5.37;4.90;;;;;;;17.52;97.30;96378.91;5008093;28;20212;-57
2021/07/16 01:39:03;;;;;;;5.40;5.00;;;;;;;17.49;97.58;96384.78;4998073;28;20527;-58
2021/07/16 01:41:29;;;;;;;6.13;5.63;;;;;;;17.46;98.18;96380.75;4993015;28;20262;-57
2021/07/16 01:43:54;;;;;;;6.00;5.50;;;;;;;17.54;97.89;96379.44;5005808;28;20972;-56
2021/07/16 01:46:19;;;;;;;6.30;5.80;;;;;;;17.65;97.29;96374.91;5000713;28;20192;-57
2021/07/16 01:48:45;;;;;;;6.37;5.87;;;;;;;17.66;97.76;96379.16;5008363;28;20271;-56
2021/07/16 01:51:10;;;;;;;6.80;6.20;;;;;;;17.73;97.73;96377.03;5002674;28;20646;-58
2021/07/16 01:53:36;;;;;;;7.40;6.80;;;;;;;17.57;98.49;96370.97;5010485;28;20208;-56
2021/07/16 01:56:02;;;;;;;6.97;6.37;;;;;;;17.56;98.74;96369.34;4997430;28;20690;-56
2021/07/16 01:58:27;;;;;;;6.67;6.07;;;;;;;17.69;98.96;96370.66;5002415;28;20177;-56
2021/07/16 02:00:53;;;;;;;8.30;6.67;;;;;;;17.42;100.00;96368.28;5005610;28;20196;-57
2021/07/16 02:03:19;;;;;;;6.70;5.93;;;;;;;17.33;100.00;96372.56;5003633;28;20213;-58
2021/07/16 02:05:46;;;;;;;6.53;6.03;;;;;;;17.61;100.00;96379.19;5002204;28;20189;-58
2021/07/16 02:08:15;;;;;;;5.73;5.33;;;;;;;17.84;98.84;96368.75;5013112;28;20438;-58
2021/07/16 02:10:45;;;;;;;6.40;5.87;;;;;;;17.97;97.84;96372.72;5006053;28;20423;-58
2021/07/16 02:13:11;;;;;;;6.70;6.17;;;;;;;17.83;98.30;96379.66;5003726;28;20460;-58
2021/07/16 02:15:40;;;;;;;7.60;6.90;;;;;;;18.00;97.75;96374.81;4996353;28;20436;-56
2021/07/16 02:18:06;;;;;;;6.63;6.13;;;;;;;18.06;97.45;96374.50;4996609;28;20232;-58
2021/07/16 02:20:37;;;;;;;6.20;5.70;;;;;;;18.03;96.77;96380.38;4996317;28;20416;-58
2021/07/16 02:23:08;;;;;;;7.03;6.40;;;;;;;18.07;96.15;96381.44;5008758;28;21032;-58
2021/07/16 02:25:34;;;;;;;7.50;6.00;;;;;;;17.89;95.97;96382.03;5011316;28;20475;-58
2021/07/16 02:28:04;;;;;;;6.80;6.20;;;;;;;17.89;96.34;96381.22;5002628;28;20459;-58
2021/07/16 02:30:30;;;;;;;7.20;6.10;;;;;;;17.95;95.58;96378.31;5009222;28;20191;-55
2021/07/16 02:32:57;;;;;;;6.30;5.80;;;;;;;17.92;96.14;96386.81;5000417;28;20423;-55
2021/07/16 02:35:23;;;;;;;6.47;5.97;;;;;;;17.95;95.63;96383.63;4991631;28;20473;-57
2021/07/16 02:37:49;;;;;;;6.03;5.53;;;;;;;17.98;95.28;96379.59;5004324;28;20431;-58
2021/07/16 02:40:15;;;;;;;5.83;5.33;;;;;;;17.88;95.50;96379.66;5007131;28;21041;-58
2021/07/16 02:42:42;;;;;;;6.80;6.30;;;;;;;17.86;95.46;96373.81;5004584;28;20180;-57
2021/07/16 02:45:10;;;;;;;6.40;5.80;;;;;;;17.84;95.09;96376.75;5015228;28;20520;-56
2021/07/16 02:47:38;;;;;;;6.20;5.70;;;;;;;17.69;96.24;96382.09;4999224;28;20448;-58
2021/07/16 02:50:09;;;;;;;6.37;5.87;;;;;;;17.80;96.03;96388.97;4995974;28;20875;-56
2021/07/16 02:52:35;;;;;;;5.90;5.43;;;;;;;17.82;96.34;96386.84;5014735;28;20419;-58
2021/07/16 02:55:01;;;;;;;7.00;6.50;;;;;;;17.90;95.88;96383.63;5015205;28;20780;-58
2021/07/16 02:57:26;;;;;;;6.07;5.57;;;;;;;17.73;96.16;96388.47;5015432;28;20623;-56
2021/07/16 02:59:51;;;;;;;6.53;5.93;;;;;;;17.61;97.26;96393.25;5007135;28;20288;-58
2021/07/16 03:02:17;;;;;;;5.47;5.07;;;;;;;17.66;97.22;96395.13;5002581;28;20180;-58
2021/07/16 03:04:43;;;;;;;5.30;4.80;;;;;;;17.76;96.84;96390.56;5007384;28;20223;-58
2021/07/16 03:07:09;;;;;;;6.27;5.73;;;;;;;17.60;97.07;96389.03;4995636;28;20176;-58
2021/07/16 03:09:34;;;;;;;6.80;6.27;;;;;;;17.56;97.59;96395.94;5002787;28;20781;-59
2021/07/16 03:12:04;;;;;;;7.60;6.90;;;;;;;17.64;97.26;96392.72;5014920;28;20296;-59
2021/07/16 03:14:30;;;;;;;6.97;6.37;;;;;;;17.57;98.37;96386.91;5000496;28;20193;-58
2021/07/16 03:16:55;;;;;;;7.00;6.40;;;;;;;17.67;98.24;96394.03;5002899;28;20932;-57
2021/07/16 03:19:21;;;;;;;7.23;6.63;;;;;;;17.79;97.97;96391.91;5005764;28;20502;-58
2021/07/16 03:21:46;;;;;;;7.83;7.20;;;;;;;17.87;98.00;96399.31;4997986;28;20181;-56
2021/07/16 03:24:12;;;;;;;7.00;6.40;;;;;;;17.76;97.25;96395.09;5011632;28;20252;-56
2021/07/16 03:26:38;;;;;;;6.93;6.33;;;;;;;17.69;97.62;96389.25;5006852;28;20211;-58
2021/07/16 03:29:04;;;;;;;7.10;6.50;;;;;;;17.49;99.13;96390.09;5007230;28;20609;-56
2021/07/16 03:31:29;;;;;;;8.60;7.90;;;;;;;17.34;100.00;96392.72;5001959;28;20514;-58
2021/07/16 03:33:55;;;;;;;7.10;6.47;;;;;;;17.38;100.00;96397.25;5001284;28;20199;-56
2021/07/16 03:36:20;;;;;;;7.03;6.43;;;;;;;17.30;100.00;96392.47;5003932;28;20165;-58
2021/07/16 03:38:47;;;;;;;7.17;6.57;;;;;;;17.26;100.00;96380.81;4996506;28;20654;-56
2021/07/16 03:41:13;;;;;;;7.10;6.60;;;;;;;17.28;100.00;96385.84;5013859;28;20176;-58
2021/07/16 03:43:38;;;;;;;7.60;6.90;;;;;;;17.39;100.00;96387.44;5006294;28;20468;-56
2021/07/16 03:46:03;;;;;;;8.23;7.57;;;;;;;17.42;100.00;96389.53;5003153;28;20526;-56
2021/07/16 03:48:29;;;;;;;6.87;6.37;;;;;;;17.43;100.00;96388.47;4999450;28;20538;-56
2021/07/16 03:50:55;;;;;;;7.43;6.83;;;;;;;17.56;100.00;96395.13;5000076;28;20181;-58
2021/07/16 03:53:20;;;;;;;6.93;6.43;;;;;;;17.54;100.00;96397.28;5000816;28;20181;-56
2021/07/16 03:55:46;;;;;;;7.70;7.10;;;;;;;17.57;100.00;96396.72;4997514;28;20624;-58
2021/07/16 03:58:11;;;;;;;7.33;6.77;;;;;;;17.75;100.00;96404.13;5000850;28;20267;-56
2021/07/16 04:00:36;;;;;;;7.00;6.50;;;;;;;17.89;99.20;96403.31;5014148;28;20169;-58
2021/07/16 04:03:03;;;;;;;7.50;6.90;;;;;;;18.00;98.63;96402.22;5012463;28;20196;-59
2021/07/16 04:05:31;;;;;;;6.60;6.10;;;;;;;18.01;98.23;96403.00;5014263;28;20216;-55
2021/07/16 04:08:03;;;;;;;6.33;5.83;;;;;;;18.07;97.90;96394.72;5013512;28;20408;-58
2021/07/16 04:10:29;;;;;;;7.33;6.73;;;;;;;18.08;97.87;96406.19;5002886;28;20902;-56
2021/07/16 04:12:57;;;;;;;7.13;6.53;;;;;;;18.03;97.64;96399.00;4995572;28;20421;-58
2021/07/16 04:15:26;;;;;;;6.47;5.97;;;;;;;17.86;97.75;96398.53;4994276;28;20185;-56
2021/07/16 04:17:56;;;;;;;6.50;6.00;;;;;;;17.81;98.89;96403.06;4993082;28;20550;-56
2021/07/16 04:20:26;;;;;;;6.70;6.20;;;;;;;17.81;99.04;96405.72;4994518;28;20487;-56
2021/07/16 04:22:52;;;;;;;7.83;6.87;;;;;;;17.94;98.63;96405.94;4999278;28;20902;-57
2021/07/16 04:25:18;;;;;;;6.97;6.10;;;;;;;17.91;98.33;96408.34;5011867;28;20439;-58
2021/07/16 04:27:45;;;;;;;7.20;6.60;;;;;;;17.89;98.89;96415.78;5009092;28;20742;-57
2021/07/16 04:30:12;;;;;;;7.30;6.60;;;;;;;18.00;98.81;96418.16;4993610;28;20918;-58
2021/07/16 04:32:38;;;;;;;8.27;7.57;;;;;;;18.16;97.76;96403.75;4995866;28;20420;-58
2021/07/16 04:35:05;;;;;;;7.53;6.93;;;;;;;18.22;97.72;96410.66;5004755;28;20473;-57
2021/07/16 04:37:30;;;;;;;7.10;6.50;;;;;;;18.10;98.20;96420.78;5002311;28;20416;-57
2021/07/16 04:39:56;;;;;;;7.33;6.73;;;;;;;18.08;98.45;96422.91;5003804;28;20428;-58
2021/07/16 04:42:21;;;;;;;6.27;5.87;;;;;;;18.14;97.85;96421.03;4997983;28;20209;-59
2021/07/16 04:44:47;;;;;;;6.83;6.23;;;;;;;18.22;97.71;96413.31;4995225;28;20205;-57
2021/07/16 04:47:13;;;;;;;7.17;6.47;;;;;;;18.34;97.17;96420.97;4994037;28;20220;-58
2021/07/16 04:49:38;;;;;;;7.27;6.57;;;;;;;18.35;97.04;96415.34;4994134;28;20301;-59
2021/07/16 04:52:04;;;;;;;5.93;5.43;;;;;;;18.18;97.94;96425.56;4996904;28;20173;-58
2021/07/16 04:54:29;;;;;;;7.47;6.73;;;;;;;18.26;98.44;96416.22;4997417;28;20240;-57
2021/07/16 04:56:55;;;;;;;7.20;6.60;;;;;;;18.41;97.31;96419.63;5004592;28;20588;-59
2021/07/16 04:59:20;;;;;;;7.37;6.70;;;;;;;18.47;97.09;96420.41;4998016;28;20239;-56
2021/07/16 05:01:46;;;;;;;8.20;7.50;;;;;;;18.58;96.46;96418.47;4997780;28;20176;-58
2021/07/16 05:04:11;;;;;;;6.73;6.23;;;;;;;18.66;96.32;96424.03;5014169;28;20282;-59
2021/07/16 05:06:37;;;;;;;7.77;7.13;;;;;;;18.66;96.44;96423.25;5011050;28;20185;-58
2021/07/16 05:09:03;;;;;;;6.70;6.20;;;;;;;18.66;96.48;96433.88;5009415;28;20263;-56
2021/07/16 05:11:30;;;;;;;9.50;7.40;;;;;;;18.73;96.03;96437.03;5006894;28;20277;-56
2021/07/16 05:13:56;;;;;;;7.27;6.67;;;;;;;18.78;95.78;96439.66;5001615;28;20435;-58
2021/07/16 05:16:21;;;;;;;7.00;6.37;;;;;;;18.81;95.90;96447.09;5010615;28;20826;-59
2021/07/16 05:18:47;;;;;;;8.03;7.27;;;;;;;18.59;96.96;96444.03;5009131;28;20183;-56
2021/07/16 05:21:13;;;;;;;7.37;6.77;;;;;;;18.61;97.26;96448.00;4997424;28;20169;-55
2021/07/16 05:23:40;;;;;;;7.80;7.10;;;;;;;18.74;96.73;96446.59;5013937;28;20209;-57
2021/07/16 05:26:06;;;;;;;7.47;6.77;;;;;;;18.85;96.56;96453.47;5005682;28;20419;-56
2021/07/16 05:28:31;;;;;;;6.37;5.90;;;;;;;18.91;96.40;96447.84;5003680;28;20424;-57
2021/07/16 05:30:57;;;;;;;8.77;8.00;;;;;;;18.92;97.63;96451.31;5008440;28;20571;-59
2021/07/16 05:33:23;;;;;;;7.23;6.63;;;;;;;19.09;96.95;96459.72;4996871;28;20166;-56
2021/07/16 05:35:49;;;;;;;10.53;9.40;;;;;;;19.13;97.08;96461.53;4998107;28;20224;-56
2021/07/16 05:38:14;;;;;;;9.03;6.70;;;;;;;19.28;96.78;96464.13;5001320;28;20905;-57
2021/07/16 05:40:40;;;;;;;9.00;8.30;;;;;;;19.38;96.66;96461.41;5003314;28;20181;-56
2021/07/16 05:43:08;;;;;;;8.47;7.77;;;;;;;19.40;96.99;96459.25;5016240;28;20251;-56
2021/07/16 05:45:35;;;;;;;9.27;8.43;;;;;;;19.57;96.52;96468.75;5004052;28;20452;-57
2021/07/16 05:48:01;;;;;;;9.13;8.33;;;;;;;19.59;96.91;96469.22;4999668;28;20832;-57
2021/07/16 05:50:27;;;;;;;9.73;8.73;;;;;;;19.65;97.11;96471.59;5004138;28;20425;-56
2021/07/16 05:52:53;;;;;;;8.80;8.10;;;;;;;19.58;97.79;96471.13;5004412;28;20421;-56
2021/07/16 05:55:18;;;;;;;10.87;9.83;;;;;;;19.73;97.13;96473.63;4996817;28;20193;-56
2021/07/16 05:57:43;;;;;;;11.07;9.97;;;;;;;19.83;96.58;96473.56;5014733;28;20183;-56
2021/07/16 06:00:09;;;;;;;11.47;10.40;;;;;;;19.95;95.99;96479.31;5013526;28;20654;-56
2021/07/16 06:02:35;;;;;;;11.20;10.20;;;;;;;19.89;96.48;96483.09;5011729;28;20180;-56
2021/07/16 06:05:00;;;;;;;11.27;10.13;;;;;;;19.92;96.87;96490.53;5012721;28;21126;-56
2021/07/16 06:07:25;;;;;;;11.33;10.17;;;;;;;19.99;96.54;96483.00;4995656;28;20183;-56
2021/07/16 06:09:51;;;;;;;12.23;11.03;;;;;;;19.91;97.15;96486.28;5006931;28;20177;-56
2021/07/16 06:12:16;;;;;;;10.33;9.47;;;;;;;19.98;97.06;96481.44;4996405;28;20651;-56
2021/07/16 06:14:42;;;;;;;11.43;10.53;;;;;;;20.01;97.09;96488.84;5005570;28;20252;-56
2021/07/16 06:17:08;;;;;;;13.47;12.27;;;;;;;20.13;96.68;96496.47;5001429;28;20173;-56
2021/07/16 06:19:34;;;;;;;13.50;12.40;;;;;;;20.24;95.79;96492.66;5000777;28;20554;-56
2021/07/16 06:21:59;;;;;;;12.30;11.20;;;;;;;20.24;95.96;96497.97;5000379;28;20898;-58
2021/07/16 06:24:25;;;;;;;14.37;13.17;;;;;;;20.32;96.01;96508.06;5000769;28;20292;-61
2021/07/16 06:26:50;;;;;;;14.17;12.87;;;;;;;20.43;95.63;96499.66;4998143;28;20623;-60
2021/07/16 06:29:16;;;;;;;13.70;12.50;;;;;;;20.46;95.49;96504.44;5002494;28;20639;-59
2021/07/16 06:31:41;;;;;;;13.63;12.43;;;;;;;20.38;95.62;96496.25;5003160;28;20549;-59
2021/07/16 06:34:06;;;;;;;12.67;11.57;;;;;;;20.39;95.46;96495.97;5007476;28;20741;-56
2021/07/16 06:36:32;;;;;;;13.77;12.70;;;;;;;20.48;95.80;96494.25;4993642;28;20208;-56
2021/07/16 06:38:57;;;;;;;11.53;10.63;;;;;;;20.47;96.09;96497.22;4996918;28;20323;-55
2021/07/16 06:41:22;;;;;;;11.13;10.23;;;;;;;20.47;95.59;96500.66;5004286;28;20186;-59
2021/07/16 06:43:48;;;;;;;11.20;10.10;;;;;;;20.60;95.24;96501.84;5000481;28;20250;-55
2021/07/16 06:46:14;;;;;;;10.80;9.90;;;;;;;20.60;93.37;96506.41;5010331;28;20188;-56
2021/07/16 06:48:43;;;;;;;10.70;9.80;;;;;;;20.49;94.45;96509.19;5003239;28;20184;-59
2021/07/16 06:51:12;;;;;;;11.33;10.43;;;;;;;20.68;93.72;96513.78;5015358;28;20685;-55
2021/07/16 06:53:39;;;;;;;10.63;9.63;;;;;;;20.73;93.14;96508.38;5003655;28;20432;-55
2021/07/16 06:56:04;;;;;;;11.73;10.67;;;;;;;20.48;94.65;96512.94;4995744;28;20774;-55
2021/07/16 06:58:30;;;;;;;11.00;10.10;;;;;;;20.78;92.81;96517.13;4995679;28;20428;-54
2021/07/16 07:00:56;;;;;;;10.00;9.00;;;;;;;20.90;92.10;96517.53;4995789;28;20187;-55
2021/07/16 07:03:25;;;;;;;11.50;10.60;;;;;;;20.94;92.04;96528.44;4995223;28;20555;-56
2021/07/16 07:05:55;;;;;;;10.83;9.90;;;;;;;20.88;92.63;96522.34;5001733;28;20181;-59
2021/07/16 07:08:21;;;;;;;10.47;9.57;;;;;;;20.84;93.26;96525.88;5006786;28;20486;-59
2021/07/16 07:10:47;;;;;;;9.60;8.80;;;;;;;20.92;93.68;96526.03;5005630;28;20439;-58
2021/07/16 07:13:13;;;;;;;11.53;9.77;;;;;;;21.07;93.19;96531.22;5007081;28;20415;-56
2021/07/16 07:15:38;;;;;;;10.87;10.00;;;;;;;21.17;92.65;96535.63;4995151;28;20232;-55
2021/07/16 07:18:07;;;;;;;10.07;9.27;;;;;;;20.99;94.80;96533.69;5003626;28;20196;-59
2021/07/16 07:20:34;;;;;;;10.47;9.67;;;;;;;21.00;94.94;96543.31;5015078;28;20643;-56
2021/07/16 07:23:00;;;;;;;10.50;9.60;;;;;;;21.02;93.70;96541.97;5010992;28;20415;-55
2021/07/16 07:25:26;;;;;;;9.60;8.80;;;;;;;20.96;94.65;96544.97;5002437;28;20435;-56
2021/07/16 07:27:51;;;;;;;9.63;8.83;;;;;;;21.11;93.35;96542.91;5004484;28;20427;-59
2021/07/16 07:30:17;;;;;;;9.20;8.50;;;;;;;21.20;92.60;96551.88;5001790;28;20184;-56
2021/07/16 07:32:43;;;;;;;10.43;9.63;;;;;;;21.19;92.59;96552.19;5006624;28;20589;-56
2021/07/16 07:35:08;;;;;;;9.60;8.80;;;;;;;21.06;92.80;96555.56;4994970;28;20206;-59
2021/07/16 07:37:34;;;;;;;10.53;9.57;;;;;;;21.07;92.60;96549.91;4994952;28;20654;-59
2021/07/16 07:40:00;;;;;;;10.93;10.03;;;;;;;21.07;92.30;96547.25;4995086;28;20404;-59
2021/07/16 07:42:26;;;;;;;10.90;10.00;;;;;;;21.00;93.25;96559.34;4995050;28;20170;-59
2021/07/16 07:44:53;;;;;;;9.13;8.43;;;;;;;21.09;92.44;96557.63;4997259;28;20464;-56
2021/07/16 07:47:20;;;;;;;11.23;10.33;;;;;;;21.19;91.76;96560.19;5005918;28;20180;-58
2021/07/16 07:49:46;;;;;;;12.10;11.20;;;;;;;21.34;90.91;96557.31;5006304;28;20770;-56
2021/07/16 07:52:12;;;;;;;10.67;9.87;;;;;;;21.47;90.55;96553.91;4998715;28;20503;-55
2021/07/16 07:54:37;;;;;;;12.97;11.90;;;;;;;21.48;90.23;96560.88;4996908;28;20835;-55
2021/07/16 07:57:03;;;;;;;12.90;11.87;;;;;;;21.59;89.54;96566.84;5014479;28;20411;-55
2021/07/16 07:59:28;;;;;;;12.20;11.10;;;;;;;21.39;89.19;96570.63;5014240;28;20635;-55
2021/07/16 08:01:54;;;;;;;10.50;9.70;;;;;;;21.49;89.22;96573.13;5014286;28;20211;-56
2021/07/16 08:04:19;;;;;;;11.33;10.37;;;;;;;21.56;89.05;96568.22;5013621;28;20575;-55
2021/07/16 08:06:45;;;;;;;11.13;10.23;;;;;;;21.43;89.49;96568.97;5001908;28;20215;-55
2021/07/16 08:09:10;;;;;;;11.07;10.17;;;;;;;21.52;89.20;96569.91;5012739;28;20498;-59
2021/07/16 08:11:36;;;;;;;10.73;9.93;;;;;;;21.75;88.27;96571.69;5009006;28;20623;-59
2021/07/16 08:14:03;;;;;;;11.03;10.13;;;;;;;21.94;87.77;96577.84;4992817;28;20189;-59
2021/07/16 08:16:28;;;;;;;9.60;8.60;;;;;;;21.99;87.68;96574.28;4994356;28;20412;-58
2021/07/16 08:18:54;;;;;;;11.73;10.73;;;;;;;22.13;87.25;96575.94;4996071;28;20481;-59
2021/07/16 08:21:21;;;;;;;9.83;9.13;;;;;;;22.07;87.26;96578.97;5005710;28;20201;-56
2021/07/16 08:23:47;;;;;;;10.80;9.90;;;;;;;21.84;84.98;96572.66;4993766;28;20198;-59
2021/07/16 08:26:13;;;;;;;11.60;10.70;;;;;;;21.73;85.65;96573.06;5004622;28;20423;-58
2021/07/16 08:28:39;;;;;;;10.17;9.37;;;;;;;21.77;86.84;96579.44;5013949;28;20412;-55
2021/07/16 08:31:05;;;;;;;9.33;8.63;;;;;;;21.69;87.62;96577.41;5010814;28;20424;-60
2021/07/16 08:33:30;;;;;;;10.00;9.20;;;;;;;21.93;86.27;96581.63;5009085;28;20423;-56
2021/07/16 08:35:56;;;;;;;11.67;10.77;;;;;;;22.00;85.49;96590.06;4994279;28;20591;-59
2021/07/16 08:38:21;;;;;;;8.73;8.13;;;;;;;22.10;86.66;96581.06;5001609;28;20231;-55
2021/07/16 08:40:49;;;;;;;9.60;8.70;;;;;;;22.08;84.91;96585.94;4996835;28;20191;-55
2021/07/16 08:43:17;;;;;;;9.57;8.83;;;;;;;22.11;85.73;96591.50;5011214;28;20223;-55
2021/07/16 08:45:45;;;;;;;9.80;9.10;;;;;;;22.09;85.47;96584.81;5010859;28;20427;-59
2021/07/16 08:48:11;;;;;;;8.40;7.80;;;;;;;22.23;85.61;96591.81;5004285;28;20420;-56
2021/07/16 08:50:37;;;;;;;8.40;7.80;;;;;;;21.98;86.22;96586.06;5001837;28;20442;-58
2021/07/16 08:53:03;;;;;;;8.23;7.63;;;;;;;21.98;87.91;96580.72;5002754;28;20418;-56
2021/07/16 08:55:36;;;;;;;8.30;7.70;;;;;;;22.31;87.11;96596.50;5000285;28;20445;-59
2021/07/16 08:58:06;;;;;;;8.27;7.67;;;;;;;22.58;85.55;96595.78;5008686;28;20185;-56
2021/07/16 09:00:32;;;;;;;8.23;7.63;;;;;;;22.73;82.49;96598.19;5001030;28;20427;-59
2021/07/16 09:02:59;;;;;;;8.50;7.90;;;;;;;22.81;81.19;96596.72;5006890;28;20930;-59
2021/07/16 09:05:37;;;;;;;8.53;7.90;;;;;;;22.77;80.79;96604.56;5001615;28;20440;-56
2021/07/16 09:08:04;;;;;;;7.70;7.10;;;;;;;22.67;81.32;96604.72;5002386;28;20937;-56
2021/07/16 09:10:30;;;;;;;7.93;7.23;;;;;;;22.72;81.48;96603.84;4999757;28;20843;-57
2021/07/16 09:12:58;;;;;;;6.53;6.03;;;;;;;22.78;80.71;96603.47;5007742;28;20427;-56
2021/07/16 09:15:23;;;;;;;6.50;6.10;;;;;;;22.72;81.43;96607.31;4996562;28;20437;-59
2021/07/16 09:17:52;;;;;;;5.87;5.17;;;;;;;22.84;81.25;96593.44;4997522;28;20453;-59
2021/07/16 09:20:25;;;;;;;4.70;4.40;;;;;;;22.93;79.03;96597.81;4999327;28;20178;-55
2021/07/16 09:23:09;;;;;;;5.80;5.40;;;;;;;23.05;78.72;96598.09;4974059;28;20444;-59
2021/07/16 09:25:34;;;;;;;5.47;5.10;;;;;;;23.18;78.58;96593.81;4993678;28;20432;-59
2021/07/16 09:27:59;;;;;;;4.70;4.40;;;;;;;23.23;77.05;96591.03;5003937;28;20418;-56
2021/07/16 09:30:29;;;;;;;5.17;4.77;;;;;;;23.01;77.71;96593.66;5006779;28;20200;-59
2021/07/16 09:33:01;;;;;;;5.13;4.73;;;;;;;23.00;79.10;96592.84;5002337;28;20295;-59
2021/07/16 09:35:27;;;;;;;5.73;5.10;;;;;;;22.96;83.00;96599.88;4999446;28;20527;-56
2021/07/16 09:37:55;;;;;;;5.27;4.97;;;;;;;23.09;81.59;96600.97;5007970;28;20412;-56
2021/07/16 09:40:32;;;;;;;5.40;5.00;;;;;;;23.25;80.51;96596.88;5016795;28;20415;-56
2021/07/16 09:43:10;;;;;;;4.80;4.40;;;;;;;23.43;80.58;96601.34;4978905;28;20839;-59
2021/07/16 09:45:37;;;;;;;4.77;4.47;;;;;;;23.61;78.78;96603.09;5004007;28;20499;-56
2021/07/16 09:48:26;;;;;;;4.50;4.20;;;;;;;23.75;78.32;96598.50;5009403;28;20412;-56
2021/07/16 09:51:12;;;;;;;4.87;4.53;;;;;;;23.44;78.74;96594.91;5007312;28;21547;-56
2021/07/16 09:54:05;;;;;;;4.30;4.00;;;;;;;23.33;75.98;96585.50;5006271;28;20924;-56
2021/07/16 09:56:33;;;;;;;4.67;4.37;;;;;;;23.59;76.58;96589.19;5009926;28;20419;-59
2021/07/16 09:59:00;;;;;;;4.90;4.57;;;;;;;23.61;75.60;96595.06;5002217;28;20420;-56
2021/07/16 10:01:28;;;;;;;4.13;3.93;;;;;;;23.63;75.25;96595.56;5003667;28;20925;-56
2021/07/16 10:03:57;;;;;;;4.00;3.73;;;;;;;23.71;76.18;96594.03;5004848;28;20471;-55
2021/07/16 10:06:23;;;;;;;4.90;4.50;;;;;;;23.73;75.97;96595.34;5016455;28;20412;-55
2021/07/16 10:08:49;;;;;;;4.17;3.90;;;;;;;23.76;75.54;96589.34;5001115;28;20420;-55
2021/07/16 10:11:19;;;;;;;4.23;3.93;;;;;;;23.57;80.09;96590.63;4996780;28;20416;-59
2021/07/16 10:13:46;;;;;;;4.23;3.93;;;;;;;23.84;79.06;96598.59;4996251;28;20190;-56
2021/07/16 10:16:14;;;;;;;3.90;3.67;;;;;;;24.02;76.31;96593.06;4996653;28;20417;-59
2021/07/16 10:18:40;;;;;;;4.00;3.70;;;;;;;24.17;76.65;96598.06;4996603;28;20415;-55
2021/07/16 10:21:06;;;;;;;3.27;3.07;;;;;;;24.31;76.52;96587.25;5012508;28;20428;-59
2021/07/16 10:23:33;;;;;;;3.63;3.43;;;;;;;24.50;75.62;96595.88;5010640;28;20464;-55
2021/07/16 10:25:58;;;;;;;3.27;3.07;;;;;;;24.70;75.47;96590.00;5007886;28;20184;-59
2021/07/16 10:28:31;;;;;;;3.60;3.30;;;;;;;24.80;72.98;96589.75;4997500;28;20473;-59
2021/07/16 10:30:56;;;;;;;3.30;3.10;;;;;;;24.84;71.98;96595.31;5002463;28;20221;-55
2021/07/16 10:33:38;;;;;;;2.87;2.70;;;;;;;24.71;73.16;96597.00;5015551;28;20435;-55
2021/07/16 10:36:09;;;;;;;3.10;2.90;;;;;;;24.72;72.59;96595.09;5011923;28;20173;-59
2021/07/16 10:38:35;;;;;;;2.70;2.50;;;;;;;24.71;69.75;96604.25;4996362;28;20821;-59
2021/07/16 10:41:01;;;;;;;2.40;2.30;;;;;;;24.73;68.23;96604.75;4996123;28;20500;-56
2021/07/16 10:43:26;;;;;;;2.80;2.60;;;;;;;24.86;71.89;96598.47;5004451;28;20230;-59
2021/07/16 10:45:52;;;;;;;2.63;2.53;;;;;;;24.81;74.62;96599.41;5015548;28;20184;-59
2021/07/16 10:48:19;;;;;;;2.40;2.30;;;;;;;24.68;69.71;96599.44;5015296;28;20172;-56
2021/07/16 10:50:47;;;;;;;2.50;2.30;;;;;;;25.02;72.20;96599.66;5015438;28;20420;-56
2021/07/16 10:53:41;;;;;;;2.63;2.53;;;;;;;24.97;73.59;96605.94;5014969;28;20416;-59
2021/07/16 10:56:10;;;;;;;3.00;2.33;;;;;;;24.91;68.77;96592.97;5010826;28;20774;-55
2021/07/16 10:58:35;;;;;;;2.27;2.17;;;;;;;25.16;70.50;96594.94;5004127;28;20518;-56
2021/07/16 11:01:05;;;;;;;2.60;2.40;;;;;;;25.29;72.67;96592.09;5008557;28;20452;-59
2021/07/16 11:03:49;;;;;;;2.50;2.40;;;;;;;25.50;70.05;96597.72;5010681;28;20288;-57
2021/07/16 11:06:17;;;;;;;3.10;2.90;;;;;;;25.71;67.88;96593.31;5003250;28;20416;-59
2021/07/16 11:08:42;;;;;;;3.37;3.07;;;;;;;25.97;66.96;96586.03;5009709;28;20420;-59
2021/07/16 11:11:09;;;;;;;2.70;2.50;;;;;;;25.94;68.70;96593.97;5007274;28;20426;-59
2021/07/16 11:13:56;;;;;;;3.17;2.80;;;;;;;26.04;65.64;96594.47;5014708;28;20169;-58
2021/07/16 11:16:25;;;;;;;2.70;2.60;;;;;;;25.89;66.09;96594.91;4976534;28;20428;-55
2021/07/16 11:19:14;;;;;;;2.93;2.73;;;;;;;26.00;66.25;96606.94;4976149;28;20440;-55
2021/07/16 11:21:39;;;;;;;2.10;2.00;;;;;;;25.95;65.13;96601.72;4972953;28;20430;-59
2021/07/16 11:24:24;;;;;;;2.40;2.30;;;;;;;25.98;64.90;96606.47;4975107;28;20473;-59
2021/07/16 11:27:00;;;;;;;2.90;2.70;;;;;;;26.04;66.57;96602.53;4989961;28;20202;-56
2021/07/16 11:29:28;;;;;;;2.63;2.50;;;;;;;26.14;66.84;96601.44;5014904;28;20427;-59